sensor_id;sensor_type;location;lat;lon;timestamp;pressure;altitude;pressure_sealevel;temperature;humidity
54872;BME280;43914;57.680;11.982;2022-09-02T00:00:53;101558.52;;;11.25;64.03
54872;BME280;43914;57.680;11.982;2022-09-02T00:03:28;101559.01;;;11.24;63.89
54872;BME280;43914;57.680;11.982;2022-09-02T00:05:56;101567.23;;;11.23;63.83
54872;BME280;43914;57.680;11.982;2022-09-02T00:08:22;101558.34;;;11.22;63.81
54872;BME280;43914;57.680;11.982;2022-09-02T00:10:48;101554.98;;;11.20;63.51
54872;BME280;43914;57.680;11.982;2022-09-02T00:13:16;101552.96;;;11.18;63.51
54872;BME280;43914;57.680;11.982;2022-09-02T00:15:46;101553.97;;;11.17;63.37
54872;BME280;43914;57.680;11.982;2022-09-02T00:18:13;101557.00;;;11.14;63.44
54872;BME280;43914;57.680;11.982;2022-09-02T00:20:43;101557.00;;;11.14;63.40
54872;BME280;43914;57.680;11.982;2022-09-02T00:23:11;101559.36;;;11.13;63.35
54872;BME280;43914;57.680;11.982;2022-09-02T00:25:39;101565.22;;;11.13;63.46
54872;BME280;43914;57.680;11.982;2022-09-02T00:28:06;101559.51;;;11.11;63.48
54872;BME280;43914;57.680;11.982;2022-09-02T00:30:33;101571.80;;;11.10;63.26
54872;BME280;43914;57.680;11.982;2022-09-02T00:33:00;101569.08;;;11.06;63.36
54872;BME280;43914;57.680;11.982;2022-09-02T00:35:26;101569.75;;;11.04;63.30
54872;BME280;43914;57.680;11.982;2022-09-02T00:37:52;101568.59;;;11.02;63.60
54872;BME280;43914;57.680;11.982;2022-09-02T00:40:18;101570.42;;;11.02;63.87
54872;BME280;43914;57.680;11.982;2022-09-02T00:42:45;101559.81;;;10.92;64.12
54872;BME280;43914;57.680;11.982;2022-09-02T00:45:11;101566.05;;;10.96;64.23
54872;BME280;43914;57.680;11.982;2022-09-02T00:47:39;101572.44;;;10.95;64.29
54872;BME280;43914;57.680;11.982;2022-09-02T00:50:08;101570.77;;;10.94;64.32
54872;BME280;43914;57.680;11.982;2022-09-02T00:52:40;101566.91;;;10.93;64.33
54872;BME280;43914;57.680;11.982;2022-09-02T00:55:14;101564.52;;;10.90;64.49
54872;BME280;43914;57.680;11.982;2022-09-02T00:57:45;101562.51;;;10.88;64.44
54872;BME280;43914;57.680;11.982;2022-09-02T01:00:25;101561.34;;;10.82;64.49
54872;BME280;43914;57.680;11.982;2022-09-02T01:02:50;101566.72;;;10.82;64.65
54872;BME280;43914;57.680;11.982;2022-09-02T01:05:20;101560.30;;;10.75;64.77
54872;BME280;43914;57.680;11.982;2022-09-02T01:07:48;101562.83;;;10.72;65.39
54872;BME280;43914;57.680;11.982;2022-09-02T01:10:18;101563.32;;;10.72;65.69
54872;BME280;43914;57.680;11.982;2022-09-02T01:12:55;101560.97;;;10.68;65.86
54872;BME280;43914;57.680;11.982;2022-09-02T01:15:23;101563.17;;;10.69;65.83
54872;BME280;43914;57.680;11.982;2022-09-02T01:17:51;101558.13;;;10.66;65.87
54872;BME280;43914;57.680;11.982;2022-09-02T01:20:21;101561.48;;;10.68;65.91
54872;BME280;43914;57.680;11.982;2022-09-02T01:22:49;101565.00;;;10.68;65.81
54872;BME280;43914;57.680;11.982;2022-09-02T01:25:19;101561.15;;;10.67;66.22
54872;BME280;43914;57.680;11.982;2022-09-02T01:27:48;101557.27;;;10.65;66.96
54872;BME280;43914;57.680;11.982;2022-09-02T01:30:23;101549.53;;;10.62;67.46
54872;BME280;43914;57.680;11.982;2022-09-02T01:32:50;101553.23;;;10.61;67.96
54872;BME280;43914;57.680;11.982;2022-09-02T01:35:17;101555.24;;;10.59;68.06
54872;BME280;43914;57.680;11.982;2022-09-02T01:37:44;101549.19;;;10.57;68.11
54872;BME280;43914;57.680;11.982;2022-09-02T01:40:13;101547.50;;;10.52;68.89
54872;BME280;43914;57.680;11.982;2022-09-02T01:42:45;101546.98;;;10.48;69.21
54872;BME280;43914;57.680;11.982;2022-09-02T01:45:10;101551.83;;;10.45;69.24
54872;BME280;43914;57.680;11.982;2022-09-02T01:47:37;101549.66;;;10.44;69.16
54872;BME280;43914;57.680;11.982;2022-09-02T01:50:06;101547.79;;;10.41;68.98
54872;BME280;43914;57.680;11.982;2022-09-02T01:52:33;101536.98;;;10.32;69.31
54872;BME280;43914;57.680;11.982;2022-09-02T01:55:00;101538.67;;;10.33;69.18
54872;BME280;43914;57.680;11.982;2022-09-02T01:57:27;101548.74;;;10.31;69.22
54872;BME280;43914;57.680;11.982;2022-09-02T01:59:53;101544.03;;;10.29;69.37
54872;BME280;43914;57.680;11.982;2022-09-02T02:02:20;101545.37;;;10.25;69.42
54872;BME280;43914;57.680;11.982;2022-09-02T02:04:48;101540.66;;;10.23;69.55
54872;BME280;43914;57.680;11.982;2022-09-02T02:07:16;101543.34;;;10.23;69.91
54872;BME280;43914;57.680;11.982;2022-09-02T02:09:43;101546.19;;;10.21;69.86
54872;BME280;43914;57.680;11.982;2022-09-02T02:12:10;101543.67;;;10.20;69.86
54872;BME280;43914;57.680;11.982;2022-09-02T02:14:37;101546.01;;;10.15;69.80
54872;BME280;43914;57.680;11.982;2022-09-02T02:17:04;101547.98;;;10.13;69.89
54872;BME280;43914;57.680;11.982;2022-09-02T02:19:30;101553.20;;;10.10;69.99
54872;BME280;43914;57.680;11.982;2022-09-02T02:21:56;101545.27;;;10.04;69.70
54872;BME280;43914;57.680;11.982;2022-09-02T02:24:22;101551.48;;;10.01;70.26
54872;BME280;43914;57.680;11.982;2022-09-02T02:26:49;101556.00;;;10.00;70.30
54872;BME280;43914;57.680;11.982;2022-09-02T02:29:15;101551.63;;;9.99;70.53
54872;BME280;43914;57.680;11.982;2022-09-02T02:31:42;101555.86;;;10.02;70.80
54872;BME280;43914;57.680;11.982;2022-09-02T02:34:08;101552.16;;;10.03;70.90
54872;BME280;43914;57.680;11.982;2022-09-02T02:36:35;101553.99;;;10.02;70.74
54872;BME280;43914;57.680;11.982;2022-09-02T02:39:04;101557.69;;;10.01;70.79
54872;BME280;43914;57.680;11.982;2022-09-02T02:41:45;101550.30;;;9.99;70.83
54872;BME280;43914;57.680;11.982;2022-09-02T02:44:00;101546.06;;;9.96;71.12
54872;BME280;43914;57.680;11.982;2022-09-02T02:46:26;101547.07;;;9.95;71.30
54872;BME280;43914;57.680;11.982;2022-09-02T02:48:54;101554.30;;;9.95;71.49
54872;BME280;43914;57.680;11.982;2022-09-02T02:51:20;101551.62;;;9.95;71.57
54872;BME280;43914;57.680;11.982;2022-09-02T02:53:46;101554.63;;;9.92;71.58
54872;BME280;43914;57.680;11.982;2022-09-02T02:56:12;101557.99;;;9.94;72.06
54872;BME280;43914;57.680;11.982;2022-09-02T02:58:38;101562.36;;;9.95;72.17
54872;BME280;43914;57.680;11.982;2022-09-02T03:01:04;101563.51;;;9.92;72.04
54872;BME280;43914;57.680;11.982;2022-09-02T03:03:31;101561.00;;;9.91;72.23
54872;BME280;43914;57.680;11.982;2022-09-02T03:05:58;101561.00;;;9.91;72.31
54872;BME280;43914;57.680;11.982;2022-09-02T03:08:24;101560.66;;;9.90;72.53
54872;BME280;43914;57.680;11.982;2022-09-02T03:10:52;101560.31;;;9.89;72.60
54872;BME280;43914;57.680;11.982;2022-09-02T03:13:24;101552.92;;;9.87;72.82
54872;BME280;43914;57.680;11.982;2022-09-02T03:15:51;101558.30;;;9.87;72.84
54872;BME280;43914;57.680;11.982;2022-09-02T03:18:17;101558.45;;;9.89;73.06
54872;BME280;43914;57.680;11.982;2022-09-02T03:20:45;101556.29;;;9.89;73.00
54872;BME280;43914;57.680;11.982;2022-09-02T03:23:11;101567.69;;;9.87;72.79
54872;BME280;43914;57.680;11.982;2022-09-02T03:25:39;101565.33;;;9.84;73.25
54872;BME280;43914;57.680;11.982;2022-09-02T03:28:06;101564.61;;;9.81;73.18
54872;BME280;43914;57.680;11.982;2022-09-02T03:30:34;101565.80;;;9.79;73.08
54872;BME280;43914;57.680;11.982;2022-09-02T03:33:02;101565.80;;;9.79;73.25
54872;BME280;43914;57.680;11.982;2022-09-02T03:35:31;101567.62;;;9.78;72.97
54872;BME280;43914;57.680;11.982;2022-09-02T03:37:59;101566.14;;;9.80;72.91
54872;BME280;43914;57.680;11.982;2022-09-02T03:40:26;101569.16;;;9.81;72.87
54872;BME280;43914;57.680;11.982;2022-09-02T03:42:53;101567.30;;;9.81;72.82
54872;BME280;43914;57.680;11.982;2022-09-02T03:45:22;101570.98;;;9.80;72.73
54872;BME280;43914;57.680;11.982;2022-09-02T03:47:48;101564.80;;;9.80;72.62
54872;BME280;43914;57.680;11.982;2022-09-02T03:50:23;101567.30;;;9.81;72.75
54872;BME280;43914;57.680;11.982;2022-09-02T03:52:54;101565.47;;;9.82;72.59
54872;BME280;43914;57.680;11.982;2022-09-02T03:55:21;101544.77;;;9.70;72.60
54872;BME280;43914;57.680;11.982;2022-09-02T03:57:48;101564.13;;;9.82;72.53
54872;BME280;43914;57.680;11.982;2022-09-02T04:00:17;101561.25;;;9.79;72.50
54872;BME280;43914;57.680;11.982;2022-09-02T04:02:45;101553.20;;;9.79;72.59
54872;BME280;43914;57.680;11.982;2022-09-02T04:05:11;101558.56;;;9.79;72.66
54872;BME280;43914;57.680;11.982;2022-09-02T04:07:38;101556.40;;;9.79;72.48
54872;BME280;43914;57.680;11.982;2022-09-02T04:10:06;101550.69;;;9.78;72.56
54872;BME280;43914;57.680;11.982;2022-09-02T04:12:34;101563.45;;;9.80;72.54
54872;BME280;43914;57.680;11.982;2022-09-02T04:15:11;101560.25;;;9.80;72.53
54872;BME280;43914;57.680;11.982;2022-09-02T04:17:39;101565.13;;;9.81;72.34
54872;BME280;43914;57.680;11.982;2022-09-02T04:20:08;101563.27;;;9.81;72.53
54872;BME280;43914;57.680;11.982;2022-09-02T04:22:36;101570.33;;;9.82;72.39
54872;BME280;43914;57.680;11.982;2022-09-02T04:25:03;101563.79;;;9.81;72.45
54872;BME280;43914;57.680;11.982;2022-09-02T04:27:29;101570.16;;;9.80;72.37
54872;BME280;43914;57.680;11.982;2022-09-02T04:29:56;101566.14;;;9.80;72.54
54872;BME280;43914;57.680;11.982;2022-09-02T04:32:22;101570.50;;;9.81;72.43
54872;BME280;43914;57.680;11.982;2022-09-02T04:34:50;101562.25;;;9.78;72.67
54872;BME280;43914;57.680;11.982;2022-09-02T04:37:18;101561.59;;;9.80;72.82
54872;BME280;43914;57.680;11.982;2022-09-02T04:39:44;101566.30;;;9.82;72.57
54872;BME280;43914;57.680;11.982;2022-09-02T04:42:10;101565.67;;;9.85;72.65
54872;BME280;43914;57.680;11.982;2022-09-02T04:44:36;101565.01;;;9.87;72.62
54872;BME280;43914;57.680;11.982;2022-09-02T04:47:02;101564.17;;;9.90;72.57
54872;BME280;43914;57.680;11.982;2022-09-02T04:49:29;101567.39;;;9.94;72.49
54872;BME280;43914;57.680;11.982;2022-09-02T04:51:57;101567.89;;;9.98;72.41
54872;BME280;43914;57.680;11.982;2022-09-02T04:54:25;101566.06;;;9.98;72.48
54872;BME280;43914;57.680;11.982;2022-09-02T04:56:51;101570.44;;;9.99;72.28
54872;BME280;43914;57.680;11.982;2022-09-02T04:59:18;101570.28;;;10.01;72.43
54872;BME280;43914;57.680;11.982;2022-09-02T05:01:45;101569.96;;;10.04;72.21
54872;BME280;43914;57.680;11.982;2022-09-02T05:04:12;101570.30;;;10.05;72.31
54872;BME280;43914;57.680;11.982;2022-09-02T05:06:38;101571.14;;;10.09;72.25
54872;BME280;43914;57.680;11.982;2022-09-02T05:09:06;101567.50;;;10.15;72.44
54872;BME280;43914;57.680;11.982;2022-09-02T05:11:34;101573.23;;;10.20;72.23
54872;BME280;43914;57.680;11.982;2022-09-02T05:14:02;101567.53;;;10.23;72.33
54872;BME280;43914;57.680;11.982;2022-09-02T05:16:33;101566.20;;;10.27;72.30
54872;BME280;43914;57.680;11.982;2022-09-02T05:19:05;101572.94;;;10.35;72.15
54872;BME280;43914;57.680;11.982;2022-09-02T05:21:30;101565.41;;;10.39;72.18
54872;BME280;43914;57.680;11.982;2022-09-02T05:23:57;101571.01;;;10.46;72.04
54872;BME280;43914;57.680;11.982;2022-09-02T05:26:23;101567.98;;;10.49;71.87
54872;BME280;43914;57.680;11.982;2022-09-02T05:28:50;101564.80;;;10.53;71.78
54872;BME280;43914;57.680;11.982;2022-09-02T05:31:19;101568.83;;;10.58;71.90
54872;BME280;43914;57.680;11.982;2022-09-02T05:33:46;101570.03;;;10.63;71.88
54872;BME280;43914;57.680;11.982;2022-09-02T05:36:16;101569.03;;;10.68;71.66
54872;BME280;43914;57.680;11.982;2022-09-02T05:38:44;101569.71;;;10.75;71.56
54872;BME280;43914;57.680;11.982;2022-09-02T05:41:13;101566.72;;;10.78;71.37
54872;BME280;43914;57.680;11.982;2022-09-02T05:43:43;101563.84;;;10.83;71.26
54872;BME280;43914;57.680;11.982;2022-09-02T05:46:12;101561.69;;;10.87;71.19
54872;BME280;43914;57.680;11.982;2022-09-02T05:48:43;101557.31;;;10.90;71.11
54872;BME280;43914;57.680;11.982;2022-09-02T05:51:29;101560.67;;;10.96;71.03
54872;BME280;43914;57.680;11.982;2022-09-02T05:53:57;101562.69;;;11.03;70.95
54872;BME280;43914;57.680;11.982;2022-09-02T05:56:24;101567.92;;;11.08;70.76
54872;BME280;43914;57.680;11.982;2022-09-02T05:58:54;101561.86;;;11.15;70.54
54872;BME280;43914;57.680;11.982;2022-09-02T06:01:21;101554.64;;;11.19;70.30
54872;BME280;43914;57.680;11.982;2022-09-02T06:03:47;101556.83;;;11.28;70.11
54872;BME280;43914;57.680;11.982;2022-09-02T06:06:14;101562.36;;;11.35;69.90
54872;BME280;43914;57.680;11.982;2022-09-02T06:08:41;101562.86;;;11.43;69.64
54872;BME280;43914;57.680;11.982;2022-09-02T06:11:09;101565.20;;;11.50;69.40
54872;BME280;43914;57.680;11.982;2022-09-02T06:13:39;101565.22;;;11.58;69.15
54872;BME280;43914;57.680;11.982;2022-09-02T06:16:06;101566.36;;;11.64;68.96
54872;BME280;43914;57.680;11.982;2022-09-02T06:18:35;101568.73;;;11.71;68.77
54872;BME280;43914;57.680;11.982;2022-09-02T06:21:03;101575.59;;;11.78;68.56
54872;BME280;43914;57.680;11.982;2022-09-02T06:23:30;101572.05;;;11.86;68.48
54872;BME280;43914;57.680;11.982;2022-09-02T06:25:58;101580.62;;;11.93;68.15
54872;BME280;43914;57.680;11.982;2022-09-02T06:28:24;101575.71;;;11.97;68.17
54872;BME280;43914;57.680;11.982;2022-09-02T06:30:50;101580.80;;;12.04;67.92
54872;BME280;43914;57.680;11.982;2022-09-02T06:33:16;101580.78;;;12.08;68.02
54872;BME280;43914;57.680;11.982;2022-09-02T06:35:44;101582.77;;;12.15;68.16
54872;BME280;43914;57.680;11.982;2022-09-02T06:38:13;101590.33;;;12.23;68.33
54872;BME280;43914;57.680;11.982;2022-09-02T06:40:53;101590.11;;;12.29;67.21
54872;BME280;43914;57.680;11.982;2022-09-02T06:43:20;101594.64;;;12.37;67.29
54872;BME280;43914;57.680;11.982;2022-09-02T06:45:46;101595.61;;;12.44;66.98
54872;BME280;43914;57.680;11.982;2022-09-02T06:48:12;101592.56;;;12.51;66.78
54872;BME280;43914;57.680;11.982;2022-09-02T06:50:40;101590.50;;;12.58;66.46
54872;BME280;43914;57.680;11.982;2022-09-02T06:53:08;101597.55;;;12.63;65.88
54872;BME280;43914;57.680;11.982;2022-09-02T06:55:41;101593.48;;;12.67;65.57
54872;BME280;43914;57.680;11.982;2022-09-02T06:58:09;101590.59;;;12.73;65.32
54872;BME280;43914;57.680;11.982;2022-09-02T07:00:36;101598.12;;;12.77;65.54
54872;BME280;43914;57.680;11.982;2022-09-02T07:03:04;101598.63;;;12.81;65.25
54872;BME280;43914;57.680;11.982;2022-09-02T07:06:01;101600.27;;;12.86;64.97
54872;BME280;43914;57.680;11.982;2022-09-02T07:08:39;101603.60;;;12.92;64.81
54872;BME280;43914;57.680;11.982;2022-09-02T07:11:16;101601.73;;;12.97;64.51
54872;BME280;43914;57.680;11.982;2022-09-02T07:13:41;101592.08;;;13.03;64.14
54872;BME280;43914;57.680;11.982;2022-09-02T07:16:07;101589.16;;;13.08;64.37
54872;BME280;43914;57.680;11.982;2022-09-02T07:18:34;101592.18;;;13.13;64.08
54872;BME280;43914;57.680;11.982;2022-09-02T07:21:01;101590.92;;;13.20;65.14
54872;BME280;43914;57.680;11.982;2022-09-02T07:23:27;101587.41;;;13.39;65.47
54872;BME280;43914;57.680;11.982;2022-09-02T07:25:53;101594.02;;;13.55;65.97
54872;BME280;43914;57.680;11.982;2022-09-02T07:28:21;101587.08;;;13.76;66.86
54872;BME280;43914;57.680;11.982;2022-09-02T07:30:48;101588.55;;;13.98;64.97
54872;BME280;43914;57.680;11.982;2022-09-02T07:33:16;101587.97;;;14.03;63.03
54872;BME280;43914;57.680;11.982;2022-09-02T07:35:43;101588.83;;;14.03;61.69
54872;BME280;43914;57.680;11.982;2022-09-02T07:38:10;101587.47;;;14.03;61.53
54872;BME280;43914;57.680;11.982;2022-09-02T07:40:38;101591.36;;;14.05;61.00
54872;BME280;43914;57.680;11.982;2022-09-02T07:43:08;101591.15;;;14.06;60.47
54872;BME280;43914;57.680;11.982;2022-09-02T07:45:36;101587.75;;;14.08;61.12
54872;BME280;43914;57.680;11.982;2022-09-02T07:48:04;101589.58;;;14.12;61.05
54872;BME280;43914;57.680;11.982;2022-09-02T07:50:33;101589.52;;;14.16;60.35
54872;BME280;43914;57.680;11.982;2022-09-02T07:53:00;101589.80;;;14.21;59.76
54872;BME280;43914;57.680;11.982;2022-09-02T07:55:28;101596.17;;;14.24;58.33
54872;BME280;43914;57.680;11.982;2022-09-02T07:57:55;101596.65;;;14.28;57.83
54872;BME280;43914;57.680;11.982;2022-09-02T08:00:21;101602.17;;;14.31;58.57
54872;BME280;43914;57.680;11.982;2022-09-02T08:02:48;101594.71;;;14.33;57.99
54872;BME280;43914;57.680;11.982;2022-09-02T08:05:14;101596.86;;;14.37;57.39
54872;BME280;43914;57.680;11.982;2022-09-02T08:07:41;101592.42;;;14.40;56.91
54872;BME280;43914;57.680;11.982;2022-09-02T08:10:08;101596.42;;;14.45;56.41
54872;BME280;43914;57.680;11.982;2022-09-02T08:12:40;101599.07;;;14.49;56.90
54872;BME280;43914;57.680;11.982;2022-09-02T08:15:08;101602.40;;;14.55;57.01
54872;BME280;43914;57.680;11.982;2022-09-02T08:17:36;101594.55;;;14.60;57.04
54872;BME280;43914;57.680;11.982;2022-09-02T08:20:05;101601.57;;;14.65;57.42
54872;BME280;43914;57.680;11.982;2022-09-02T08:22:34;101599.80;;;14.73;57.87
54872;BME280;43914;57.680;11.982;2022-09-02T08:25:01;101602.13;;;14.76;57.99
54872;BME280;43914;57.680;11.982;2022-09-02T08:27:27;101595.94;;;14.82;58.00
54872;BME280;43914;57.680;11.982;2022-09-02T08:29:54;101595.05;;;14.85;57.86
54872;BME280;43914;57.680;11.982;2022-09-02T08:32:20;101597.05;;;14.88;57.88
54872;BME280;43914;57.680;11.982;2022-09-02T08:34:46;101596.66;;;14.91;57.96
54872;BME280;43914;57.680;11.982;2022-09-02T08:37:12;101603.69;;;14.96;58.00
54872;BME280;43914;57.680;11.982;2022-09-02T08:39:38;101594.75;;;14.95;57.53
54872;BME280;43914;57.680;11.982;2022-09-02T08:42:07;101597.77;;;14.96;57.71
54872;BME280;43914;57.680;11.982;2022-09-02T08:44:37;101591.33;;;14.97;57.40
54872;BME280;43914;57.680;11.982;2022-09-02T08:47:12;101596.67;;;15.02;57.39
54872;BME280;43914;57.680;11.982;2022-09-02T08:49:43;101600.67;;;15.06;57.45
54872;BME280;43914;57.680;11.982;2022-09-02T08:52:19;101600.28;;;15.09;57.30
54872;BME280;43914;57.680;11.982;2022-09-02T08:54:49;101597.86;;;15.14;57.57
54872;BME280;43914;57.680;11.982;2022-09-02T08:57:23;101601.84;;;15.18;57.02
54872;BME280;43914;57.680;11.982;2022-09-02T08:59:57;101605.52;;;15.21;57.06
54872;BME280;43914;57.680;11.982;2022-09-02T09:16:43;101600.21;;;15.35;56.19
54872;BME280;43914;57.680;11.982;2022-09-02T09:19:16;101599.42;;;15.41;55.54
54872;BME280;43914;57.680;11.982;2022-09-02T09:21:47;101601.05;;;15.46;55.08
54872;BME280;43914;57.680;11.982;2022-09-02T09:27:14;101597.80;;;15.57;55.06
54872;BME280;43914;57.680;11.982;2022-09-02T09:29:42;101592.52;;;15.60;55.56
54872;BME280;43914;57.680;11.982;2022-09-02T09:32:18;101589.80;;;15.60;54.23
54872;BME280;43914;57.680;11.982;2022-09-02T09:37:40;101584.73;;;15.68;54.35
54872;BME280;43914;57.680;11.982;2022-09-02T09:45:40;101592.02;;;15.78;53.76
54872;BME280;43914;57.680;11.982;2022-09-02T09:53:28;101582.63;;;15.92;52.98
54872;BME280;43914;57.680;11.982;2022-09-02T09:56:22;101581.72;;;15.95;52.62
54872;BME280;43914;57.680;11.982;2022-09-02T10:09:05;101574.01;;;16.17;51.50
54872;BME280;43914;57.680;11.982;2022-09-02T10:11:55;101589.06;;;16.26;51.33
54872;BME280;43914;57.680;11.982;2022-09-02T10:14:32;101587.94;;;16.31;51.36
54872;BME280;43914;57.680;11.982;2022-09-02T10:20:11;101581.23;;;16.44;51.90
54872;BME280;43914;57.680;11.982;2022-09-02T10:34:22;101577.14;;;16.76;51.13
54872;BME280;43914;57.680;11.982;2022-09-02T10:37:15;101575.47;;;16.75;49.45
54872;BME280;43914;57.680;11.982;2022-09-02T10:45:36;101569.81;;;17.00;49.11
54872;BME280;43914;57.680;11.982;2022-09-02T10:51:16;101565.62;;;17.11;46.26
54872;BME280;43914;57.680;11.982;2022-09-02T10:54:01;101561.23;;;17.10;46.85
54872;BME280;43914;57.680;11.982;2022-09-02T10:56:33;101562.50;;;17.21;47.72
54872;BME280;43914;57.680;11.982;2022-09-02T10:59:05;101559.06;;;17.37;47.42
54872;BME280;43914;57.680;11.982;2022-09-02T11:01:43;101558.30;;;17.45;47.19
54872;BME280;43914;57.680;11.982;2022-09-02T11:04:15;101557.99;;;17.51;47.57
54872;BME280;43914;57.680;11.982;2022-09-02T11:06:49;101559.86;;;17.57;46.36
54872;BME280;43914;57.680;11.982;2022-09-02T11:09:48;101557.34;;;17.69;45.83
54872;BME280;43914;57.680;11.982;2022-09-02T11:12:30;101566.96;;;17.72;44.06
54872;BME280;43914;57.680;11.982;2022-09-02T11:21:09;101544.73;;;17.88;46.01
54872;BME280;43914;57.680;11.982;2022-09-02T11:26:25;101539.20;;;18.29;45.52
54872;BME280;43914;57.680;11.982;2022-09-02T11:29:12;101551.19;;;18.37;44.46
54872;BME280;43914;57.680;11.982;2022-09-02T11:31:50;101550.45;;;18.39;45.03
54872;BME280;43914;57.680;11.982;2022-09-02T11:34:45;101548.20;;;18.45;45.21
54872;BME280;43914;57.680;11.982;2022-09-02T11:37:23;101546.89;;;18.55;44.56
54872;BME280;43914;57.680;11.982;2022-09-02T11:39:47;101552.28;;;18.68;44.33
54872;BME280;43914;57.680;11.982;2022-09-02T11:42:33;101545.98;;;18.68;43.46
54872;BME280;43914;57.680;11.982;2022-09-02T11:45:57;101551.25;;;18.63;43.65
54872;BME280;43914;57.680;11.982;2022-09-02T11:51:03;101538.63;;;18.59;43.33
54872;BME280;43914;57.680;11.982;2022-09-02T11:53:34;101543.86;;;18.54;43.80
54872;BME280;43914;57.680;11.982;2022-09-02T11:56:14;101547.92;;;18.60;43.16
54872;BME280;43914;57.680;11.982;2022-09-02T11:58:47;101539.68;;;18.58;43.80
54872;BME280;43914;57.680;11.982;2022-09-02T12:01:49;101541.98;;;18.54;43.42
54872;BME280;43914;57.680;11.982;2022-09-02T12:15:15;101530.94;;;19.13;44.28
54872;BME280;43914;57.680;11.982;2022-09-02T12:18:29;101522.27;;;19.32;44.32
54872;BME280;43914;57.680;11.982;2022-09-02T12:23:09;101525.51;;;19.32;42.71
54872;BME280;43914;57.680;11.982;2022-09-02T12:25:47;101512.23;;;19.42;42.83
54872;BME280;43914;57.680;11.982;2022-09-02T12:28:24;101508.44;;;19.62;43.14
54872;BME280;43914;57.680;11.982;2022-09-02T12:33:33;101509.99;;;20.04;41.66
54872;BME280;43914;57.680;11.982;2022-09-02T12:36:01;101507.47;;;20.22;40.75
54872;BME280;43914;57.680;11.982;2022-09-02T12:38:33;101498.70;;;20.41;40.72
54872;BME280;43914;57.680;11.982;2022-09-02T12:41:08;101499.30;;;20.64;41.06
54872;BME280;43914;57.680;11.982;2022-09-02T12:43:45;101505.14;;;20.89;38.96
54872;BME280;43914;57.680;11.982;2022-09-02T12:46:30;101505.06;;;21.08;38.61
54872;BME280;43914;57.680;11.982;2022-09-02T12:51:57;101502.25;;;21.05;38.94
54872;BME280;43914;57.680;11.982;2022-09-02T12:54:41;101504.61;;;21.01;38.30
54872;BME280;43914;57.680;11.982;2022-09-02T12:57:16;101511.85;;;20.84;38.22
54872;BME280;43914;57.680;11.982;2022-09-02T12:59:44;101509.56;;;21.02;39.17
54872;BME280;43914;57.680;11.982;2022-09-02T13:05:20;101500.23;;;21.48;39.03
54872;BME280;43914;57.680;11.982;2022-09-02T13:16:52;101486.58;;;22.59;35.87
54872;BME280;43914;57.680;11.982;2022-09-02T13:31:22;101483.27;;;23.87;33.12
54872;BME280;43914;57.680;11.982;2022-09-02T13:34:02;101491.34;;;23.52;32.65
54872;BME280;43914;57.680;11.982;2022-09-02T13:36:40;101483.29;;;23.45;33.58
54872;BME280;43914;57.680;11.982;2022-09-02T13:39:25;101486.38;;;23.51;33.20
54872;BME280;43914;57.680;11.982;2022-09-02T13:41:52;101478.59;;;23.62;34.30
54872;BME280;43914;57.680;11.982;2022-09-02T13:44:24;101478.14;;;23.71;33.84
54872;BME280;43914;57.680;11.982;2022-09-02T13:46:53;101485.01;;;23.51;33.61
54872;BME280;43914;57.680;11.982;2022-09-02T13:49:34;101479.30;;;23.55;33.92
54872;BME280;43914;57.680;11.982;2022-09-02T13:52:00;101474.28;;;23.91;33.67
54872;BME280;43914;57.680;11.982;2022-09-02T13:54:34;101472.69;;;23.98;33.88
54872;BME280;43914;57.680;11.982;2022-09-02T13:57:04;101470.16;;;23.91;33.43
54872;BME280;43914;57.680;11.982;2022-09-02T13:59:45;101476.17;;;23.88;32.86
54872;BME280;43914;57.680;11.982;2022-09-02T14:05:05;101474.41;;;23.38;32.63
54872;BME280;43914;57.680;11.982;2022-09-02T14:07:49;101467.05;;;23.60;33.08
54872;BME280;43914;57.680;11.982;2022-09-02T14:10:18;101463.11;;;24.23;32.65
54872;BME280;43914;57.680;11.982;2022-09-02T14:12:47;101467.06;;;24.65;32.31
54872;BME280;43914;57.680;11.982;2022-09-02T14:15:16;101459.17;;;25.09;32.09
54872;BME280;43914;57.680;11.982;2022-09-02T14:18:05;101460.70;;;25.35;30.44
54872;BME280;43914;57.680;11.982;2022-09-02T14:20:33;101450.41;;;25.66;30.54
54872;BME280;43914;57.680;11.982;2022-09-02T14:23:00;101455.20;;;26.01;29.76
54872;BME280;43914;57.680;11.982;2022-09-02T14:25:31;101464.34;;;26.20;29.82
54872;BME280;43914;57.680;11.982;2022-09-02T14:28:09;101456.95;;;26.52;29.43
54872;BME280;43914;57.680;11.982;2022-09-02T14:30:39;101450.34;;;26.89;29.17
54872;BME280;43914;57.680;11.982;2022-09-02T14:38:55;101446.80;;;27.77;27.71
54872;BME280;43914;57.680;11.982;2022-09-02T14:41:27;101438.68;;;27.97;27.25
54872;BME280;43914;57.680;11.982;2022-09-02T14:46:52;101440.47;;;28.19;26.92
54872;BME280;43914;57.680;11.982;2022-09-02T14:49:38;101437.50;;;28.48;25.80
54872;BME280;43914;57.680;11.982;2022-09-02T14:52:24;101435.06;;;28.73;25.98
54872;BME280;43914;57.680;11.982;2022-09-02T14:54:53;101429.89;;;28.96;25.73
54872;BME280;43914;57.680;11.982;2022-09-02T14:57:31;101428.47;;;28.99;25.35
54872;BME280;43914;57.680;11.982;2022-09-02T15:00:07;101429.58;;;28.98;25.53
54872;BME280;43914;57.680;11.982;2022-09-02T15:02:40;101431.34;;;28.88;25.30
54872;BME280;43914;57.680;11.982;2022-09-02T15:05:10;101440.36;;;29.26;25.46
54872;BME280;43914;57.680;11.982;2022-09-02T15:07:39;101439.34;;;29.65;24.74
54872;BME280;43914;57.680;11.982;2022-09-02T15:10:08;101439.94;;;29.84;24.46